Time;durP1;ratioP1;P1;durP2;ratioP2;P2;SDS_P1;SDS_P2;PMS_P1;PMS_P2;Temp;Humidity;BMP_temperature;BMP_pressure;BME280_temperature;BME280_humidity;BME280_pressure;Samples;Min_cycle;Max_cycle;Signal;HPM_P1;HPM_P2
2021/12/28 00:00:44;;;;;;;31.60;23.20;;;7.40;99.90;;;;;;5031548;28;20069;-68
2021/12/28 00:03:09;;;;;;;35.05;24.05;;;7.40;99.90;;;;;;5013553;28;20107;-67
2021/12/28 00:05:35;;;;;;;32.92;23.35;;;7.40;99.90;;;;;;5013445;28;20454;-67
2021/12/28 00:08:00;;;;;;;30.88;21.95;;;7.40;99.90;;;;;;5013646;28;20117;-67
2021/12/28 00:10:26;;;;;;;35.10;23.75;;;7.40;99.90;;;;;;5013380;28;20045;-67
2021/12/28 00:12:54;;;;;;;33.88;23.05;;;7.40;99.90;;;;;;5014988;28;20049;-67
2021/12/28 00:17:59;;;;;;;33.88;23.20;;;7.40;99.90;;;;;;5033263;28;20045;-68
2021/12/28 00:20:40;;;;;;;34.80;23.27;;;7.40;99.90;;;;;;5015763;28;20045;-68
2021/12/28 00:23:18;;;;;;;32.45;21.80;;;7.40;99.90;;;;;;5023028;28;20276;-67
2021/12/28 00:25:48;;;;;;;37.33;23.98;;;7.40;99.90;;;;;;5034250;28;20351;-67
2021/12/28 00:28:15;;;;;;;33.00;22.75;;;7.50;99.90;;;;;;5037123;28;20041;-68
2021/12/28 00:30:41;;;;;;;37.13;23.95;;;7.50;99.90;;;;;;5035495;28;20358;-67
2021/12/28 00:33:07;;;;;;;37.78;23.10;;;7.50;99.90;;;;;;5017105;28;20431;-66
2021/12/28 00:35:36;;;;;;;40.20;24.83;;;7.50;99.90;;;;;;5016376;28;20093;-67
2021/12/28 00:38:04;;;;;;;36.75;23.67;;;7.50;99.90;;;;;;4999557;28;20470;-67
2021/12/28 00:40:30;;;;;;;41.10;24.10;;;7.50;99.90;;;;;;5016732;28;20494;-67
2021/12/28 00:42:56;;;;;;;46.30;24.45;;;7.50;99.90;;;;;;5036303;28;20037;-67
2021/12/28 00:45:22;;;;;;;43.95;24.20;;;7.50;99.90;;;;;;5036493;28;20165;-67
2021/12/28 00:47:47;;;;;;;43.95;24.52;;;7.60;99.90;;;;;;5019037;28;20470;-68
2021/12/28 00:50:15;;;;;;;45.15;25.85;;;7.60;99.90;;;;;;5019292;28;20052;-67
2021/12/28 00:52:42;;;;;;;43.72;25.35;;;7.50;99.90;;;;;;5001500;28;20037;-67
2021/12/28 00:55:10;;;;;;;43.15;25.00;;;7.50;99.90;;;;;;5016042;28;20336;-67
2021/12/28 00:57:36;;;;;;;45.30;26.73;;;7.50;99.90;;;;;;5016906;28;20123;-67
2021/12/28 01:00:05;;;;;;;49.97;26.85;;;7.50;99.90;;;;;;4999848;28;20339;-67
2021/12/28 01:02:31;;;;;;;48.20;24.75;;;7.60;99.90;;;;;;5014540;28;20041;-68
2021/12/28 01:04:57;;;;;;;47.47;25.38;;;7.60;99.90;;;;;;5036185;28;20068;-67
2021/12/28 01:07:22;;;;;;;45.42;25.20;;;7.60;99.90;;;;;;5036426;28;20037;-67
2021/12/28 01:09:48;;;;;;;54.80;26.85;;;7.60;99.90;;;;;;5018802;28;20041;-69
2021/12/28 01:12:14;;;;;;;48.95;26.55;;;7.60;99.90;;;;;;5022687;28;20042;-67
2021/12/28 01:14:40;;;;;;;57.60;27.17;;;7.60;99.90;;;;;;5015804;28;20525;-67
2021/12/28 01:17:06;;;;;;;46.63;26.08;;;7.60;99.90;;;;;;5016243;28;20074;-67
2021/12/28 01:19:32;;;;;;;50.22;24.42;;;7.60;99.90;;;;;;5016444;28;20046;-67
2021/12/28 01:21:58;;;;;;;39.10;22.77;;;7.60;99.90;;;;;;5027134;28;20045;-67
2021/12/28 01:24:24;;;;;;;49.15;23.60;;;7.70;99.90;;;;;;5016192;28;20034;-67
2021/12/28 01:26:49;;;;;;;52.03;23.58;;;7.70;99.90;;;;;;5015911;28;20049;-67
2021/12/28 01:29:15;;;;;;;46.03;25.23;;;7.60;99.90;;;;;;5016324;28;20053;-67
2021/12/28 01:31:41;;;;;;;48.38;24.48;;;7.70;99.90;;;;;;5024928;28;20051;-67
2021/12/28 01:34:08;;;;;;;52.95;24.33;;;7.70;99.90;;;;;;5035941;28;20096;-69
2021/12/28 01:36:34;;;;;;;46.05;25.63;;;7.70;99.90;;;;;;5034877;28;20041;-67
2021/12/28 01:39:03;;;;;;;41.75;24.88;;;7.70;99.90;;;;;;5035479;28;20040;-67
2021/12/28 01:41:29;;;;;;;44.38;23.58;;;7.70;99.90;;;;;;5028381;28;20041;-67
2021/12/28 01:44:00;;;;;;;46.15;24.30;;;7.70;99.90;;;;;;5016101;28;20041;-67
2021/12/28 01:46:26;;;;;;;43.05;24.00;;;7.70;99.90;;;;;;5015626;28;20129;-67
2021/12/28 01:48:51;;;;;;;46.85;23.80;;;7.70;99.90;;;;;;5016020;28;20469;-68
2021/12/28 01:51:21;;;;;;;42.28;23.95;;;7.70;99.90;;;;;;5021110;28;20041;-67
2021/12/28 01:53:49;;;;;;;47.72;23.77;;;7.70;99.90;;;;;;5017952;28;20057;-66
2021/12/28 01:56:18;;;;;;;46.72;24.13;;;7.70;99.90;;;;;;5017449;28;20458;-67
2021/12/28 01:58:45;;;;;;;46.38;24.02;;;7.70;99.90;;;;;;5017878;28;20041;-66
2021/12/28 02:01:11;;;;;;;39.85;23.58;;;7.70;99.90;;;;;;5012834;28;20075;-66
2021/12/28 02:03:39;;;;;;;45.92;24.60;;;7.70;99.90;;;;;;4998057;28;20053;-68
2021/12/28 02:06:05;;;;;;;42.92;21.73;;;7.70;99.90;;;;;;4997899;28;20041;-67
2021/12/28 02:08:31;;;;;;;47.95;22.95;;;7.70;99.90;;;;;;5015333;28;20057;-67
2021/12/28 02:10:57;;;;;;;46.35;24.05;;;7.70;99.90;;;;;;5017811;28;20046;-66
2021/12/28 02:13:25;;;;;;;47.72;24.40;;;7.70;99.90;;;;;;5017589;28;20460;-66
2021/12/28 02:15:51;;;;;;;49.22;24.05;;;7.70;99.90;;;;;;5034264;28;20378;-67
2021/12/28 02:18:19;;;;;;;40.75;22.30;;;7.70;99.90;;;;;;5035097;28;20049;-67
2021/12/28 02:20:46;;;;;;;44.95;23.65;;;7.70;99.90;;;;;;5016519;28;20042;-67
2021/12/28 02:23:12;;;;;;;49.25;23.65;;;7.70;99.90;;;;;;5025412;28;20044;-68
2021/12/28 02:25:38;;;;;;;51.15;23.80;;;7.70;99.90;;;;;;5034635;28;20042;-67
2021/12/28 02:28:06;;;;;;;41.60;23.70;;;7.70;99.90;;;;;;5017550;28;20124;-67
2021/12/28 02:30:33;;;;;;;46.28;23.45;;;7.70;99.90;;;;;;5034692;28;20084;-67
2021/12/28 02:32:59;;;;;;;38.78;22.13;;;7.80;99.90;;;;;;5033705;28;20052;-67
2021/12/28 02:35:33;;;;;;;43.25;23.33;;;7.80;99.90;;;;;;5016731;28;20058;-66
2021/12/28 02:37:59;;;;;;;45.22;22.17;;;7.80;99.90;;;;;;5017304;28;20041;-67
2021/12/28 02:40:28;;;;;;;53.00;22.90;;;7.80;99.90;;;;;;5034451;28;20442;-67
2021/12/28 02:42:56;;;;;;;42.33;22.90;;;7.70;99.90;;;;;;5016339;28;20053;-67
2021/12/28 02:45:25;;;;;;;41.40;22.00;;;7.80;99.90;;;;;;5014366;28;20096;-66
2021/12/28 02:47:51;;;;;;;39.60;21.13;;;7.80;99.90;;;;;;5014313;28;20048;-67
2021/12/28 02:50:39;;;;;;;43.83;21.13;;;7.80;99.90;;;;;;4997436;28;20352;-66
2021/12/28 02:53:06;;;;;;;40.90;20.80;;;7.80;99.90;;;;;;5033894;28;20044;-67
2021/12/28 02:55:35;;;;;;;41.03;21.33;;;7.80;99.90;;;;;;5016290;28;20044;-67
2021/12/28 02:58:09;;;;;;;36.35;20.80;;;7.90;99.90;;;;;;5034706;28;20029;-67
2021/12/28 03:00:52;;;;;;;44.67;20.63;;;7.90;99.90;;;;;;5034016;28;20426;-66
2021/12/28 03:03:23;;;;;;;39.47;19.38;;;7.90;99.90;;;;;;5014362;28;20205;-67
2021/12/28 03:05:51;;;;;;;39.85;20.98;;;7.90;99.90;;;;;;5014047;28;20046;-67
2021/12/28 03:08:20;;;;;;;39.28;22.15;;;7.90;99.90;;;;;;5014137;28;20459;-66
2021/12/28 03:10:48;;;;;;;43.67;21.63;;;7.90;99.90;;;;;;5014772;28;20037;-66
2021/12/28 03:13:19;;;;;;;41.00;21.75;;;7.90;99.90;;;;;;5033964;28;20060;-67
2021/12/28 03:15:44;;;;;;;38.60;20.80;;;7.90;99.90;;;;;;5033103;28;20132;-66
2021/12/28 03:18:10;;;;;;;37.63;19.17;;;7.90;99.90;;;;;;5016201;28;20125;-68
2021/12/28 03:20:36;;;;;;;39.05;20.35;;;7.90;99.90;;;;;;5033579;28;20081;-66
2021/12/28 03:23:03;;;;;;;37.03;20.55;;;7.80;99.90;;;;;;5023466;28;20033;-66
2021/12/28 03:25:28;;;;;;;38.38;20.50;;;7.80;99.90;;;;;;5033485;28;20065;-66
2021/12/28 03:27:54;;;;;;;36.65;20.20;;;7.80;99.90;;;;;;5034117;28;20453;-67
2021/12/28 03:30:20;;;;;;;41.13;20.77;;;7.80;99.90;;;;;;5033597;28;20038;-67
2021/12/28 03:32:46;;;;;;;36.28;19.48;;;7.80;99.90;;;;;;5032744;28;20045;-67
2021/12/28 03:35:13;;;;;;;31.63;19.02;;;7.80;99.90;;;;;;5033372;28;20037;-68
2021/12/28 03:37:40;;;;;;;36.97;19.20;;;7.70;99.90;;;;;;5033397;28;20461;-68
2021/12/28 03:40:08;;;;;;;31.70;19.15;;;7.70;99.90;;;;;;5016110;28;20050;-67
2021/12/28 03:42:35;;;;;;;33.28;18.45;;;7.70;99.90;;;;;;5018380;28;20038;-67
2021/12/28 03:45:01;;;;;;;36.42;18.15;;;7.70;99.90;;;;;;4996054;28;20362;-68
2021/12/28 03:47:26;;;;;;;33.88;19.50;;;7.70;99.90;;;;;;4996498;28;20049;-66
2021/12/28 03:49:52;;;;;;;27.17;17.55;;;7.60;99.90;;;;;;4996530;28;20046;-68
2021/12/28 03:52:18;;;;;;;33.85;18.67;;;7.60;99.90;;;;;;5026374;28;20069;-66
2021/12/28 03:54:43;;;;;;;33.55;18.63;;;7.60;99.90;;;;;;5033387;28;20037;-67
2021/12/28 03:57:09;;;;;;;35.25;18.23;;;7.60;99.90;;;;;;5033234;28;20492;-67
2021/12/28 03:59:35;;;;;;;34.85;18.25;;;7.50;99.90;;;;;;5033277;28;20052;-67
2021/12/28 04:02:00;;;;;;;35.33;18.13;;;7.50;99.90;;;;;;5026721;28;20034;-66
2021/12/28 04:04:26;;;;;;;33.55;16.15;;;7.50;99.90;;;;;;5017688;28;20037;-67
2021/12/28 04:06:52;;;;;;;27.35;14.95;;;7.50;99.90;;;;;;5017927;28;20344;-66
2021/12/28 04:09:44;;;;;;;25.15;15.13;;;7.50;99.90;;;;;;5017434;28;20080;-66
2021/12/28 04:12:06;;;;;;;27.85;15.93;;;7.50;99.90;;;;;;5028123;28;20099;-67
2021/12/28 04:14:32;;;;;;;29.98;14.88;;;7.50;99.90;;;;;;5036934;28;20236;-67
2021/12/28 04:16:58;;;;;;;28.42;14.88;;;7.50;99.90;;;;;;5036966;28;20046;-66
2021/12/28 04:19:23;;;;;;;26.15;14.85;;;7.40;99.90;;;;;;5037322;28;20072;-67
2021/12/28 04:21:49;;;;;;;28.15;14.13;;;7.50;99.90;;;;;;5028272;28;20037;-67
2021/12/28 04:24:15;;;;;;;25.75;14.35;;;7.50;99.90;;;;;;5035647;28;20496;-66
2021/12/28 04:26:40;;;;;;;29.48;14.15;;;7.60;99.90;;;;;;5036849;28;20037;-67
2021/12/28 04:29:06;;;;;;;28.50;13.80;;;7.60;99.90;;;;;;5019687;28;20140;-67
2021/12/28 04:31:32;;;;;;;25.65;13.20;;;7.60;99.90;;;;;;5036202;28;20349;-68
2021/12/28 04:33:58;;;;;;;24.88;12.85;;;7.60;99.90;;;;;;5036842;28;20520;-66
2021/12/28 04:36:24;;;;;;;23.95;13.27;;;7.50;99.90;;;;;;5036498;28;20045;-66
2021/12/28 04:38:49;;;;;;;26.35;12.90;;;7.50;99.90;;;;;;5037087;28;20094;-66
2021/12/28 04:41:15;;;;;;;24.77;13.40;;;7.50;99.90;;;;;;5032853;28;20045;-66
2021/12/28 04:43:41;;;;;;;26.42;13.57;;;7.50;99.90;;;;;;4999576;28;20041;-66
2021/12/28 04:46:07;;;;;;;30.17;14.07;;;7.50;99.90;;;;;;5016346;28;20057;-67
2021/12/28 04:48:33;;;;;;;23.52;12.85;;;7.50;99.90;;;;;;5017163;28;20030;-66
2021/12/28 04:50:59;;;;;;;30.90;13.73;;;7.50;99.90;;;;;;5017902;28;20135;-66
2021/12/28 04:53:25;;;;;;;25.65;12.85;;;7.50;99.90;;;;;;5036807;28;20084;-66
2021/12/28 04:55:51;;;;;;;26.50;13.77;;;7.50;99.90;;;;;;5035903;28;20053;-67
2021/12/28 04:58:17;;;;;;;25.48;13.07;;;7.50;99.90;;;;;;5036627;28;20073;-66
2021/12/28 05:00:45;;;;;;;25.73;12.75;;;7.50;99.90;;;;;;5036358;28;20049;-67
2021/12/28 05:03:11;;;;;;;25.90;12.02;;;7.50;99.90;;;;;;5017197;28;20053;-67
2021/12/28 05:05:43;;;;;;;24.35;11.77;;;7.50;99.90;;;;;;5016262;28;20034;-67
2021/12/28 05:08:13;;;;;;;24.48;12.15;;;7.50;99.90;;;;;;4999568;28;20044;-66
2021/12/28 05:10:40;;;;;;;21.27;10.82;;;7.50;99.90;;;;;;5016157;28;20056;-67
2021/12/28 05:13:06;;;;;;;22.65;10.73;;;7.50;99.90;;;;;;5034974;28;20048;-67
2021/12/28 05:15:31;;;;;;;27.00;11.52;;;7.50;99.90;;;;;;5018220;28;20046;-68
2021/12/28 05:17:57;;;;;;;25.70;10.18;;;7.60;99.90;;;;;;5036349;28;20370;-66
2021/12/28 05:20:23;;;;;;;23.50;10.73;;;7.60;99.90;;;;;;5036261;28;20033;-66
2021/12/28 05:22:49;;;;;;;21.52;10.52;;;7.50;99.90;;;;;;5026579;28;20115;-66
2021/12/28 05:25:15;;;;;;;26.00;10.82;;;7.50;99.90;;;;;;5018126;28;20051;-67
2021/12/28 05:27:41;;;;;;;18.38;9.93;;;7.50;99.90;;;;;;5036122;28;20038;-67
2021/12/28 05:30:08;;;;;;;23.60;10.38;;;7.50;99.90;;;;;;5018641;28;20069;-67
2021/12/28 05:32:34;;;;;;;22.33;10.25;;;7.50;99.90;;;;;;5034960;28;20045;-66
2021/12/28 05:35:01;;;;;;;24.25;10.57;;;7.50;99.90;;;;;;5035199;28;20446;-66
2021/12/28 05:37:26;;;;;;;23.20;10.80;;;7.50;99.90;;;;;;5035525;28;20060;-67
2021/12/28 05:39:52;;;;;;;22.33;10.38;;;7.50;99.90;;;;;;5018433;28;20450;-67
2021/12/28 05:42:18;;;;;;;23.13;10.02;;;7.50;99.90;;;;;;5023752;28;20045;-66
2021/12/28 05:44:43;;;;;;;23.58;10.57;;;7.50;99.90;;;;;;5015327;28;20165;-67
2021/12/28 05:47:09;;;;;;;20.50;9.73;;;7.50;99.90;;;;;;5015782;28;20085;-66
2021/12/28 05:49:35;;;;;;;24.23;11.13;;;7.50;99.90;;;;;;5015959;28;20034;-66
2021/12/28 05:52:01;;;;;;;23.40;9.88;;;7.50;99.90;;;;;;5030492;28;20048;-66
2021/12/28 05:54:26;;;;;;;20.40;9.68;;;7.60;99.90;;;;;;5010663;28;20049;-66
2021/12/28 05:56:52;;;;;;;19.52;10.07;;;7.60;99.90;;;;;;4997739;28;20032;-67
2021/12/28 05:59:18;;;;;;;24.67;9.18;;;7.60;99.90;;;;;;4997851;28;21670;-66
2021/12/28 06:01:43;;;;;;;21.08;8.95;;;7.60;99.90;;;;;;5003283;28;20070;-67
2021/12/28 06:04:11;;;;;;;24.02;9.15;;;7.60;99.90;;;;;;4997122;28;20049;-67
2021/12/28 06:06:36;;;;;;;22.15;9.15;;;7.70;99.90;;;;;;5015160;28;20076;-66
2021/12/28 06:09:02;;;;;;;19.67;8.93;;;7.60;99.90;;;;;;4983191;28;20073;-67
2021/12/28 06:11:28;;;;;;;18.60;9.15;;;7.60;99.90;;;;;;5009492;28;20120;-66
2021/12/28 06:13:54;;;;;;;19.30;8.57;;;7.60;99.90;;;;;;5035350;28;20120;-67
2021/12/28 06:16:19;;;;;;;23.30;9.40;;;7.60;99.90;;;;;;5033685;28;20049;-66
2021/12/28 06:18:45;;;;;;;22.80;8.98;;;7.70;99.90;;;;;;5017595;28;20041;-67
2021/12/28 06:21:11;;;;;;;23.33;9.68;;;7.60;99.90;;;;;;5033651;28;20442;-66
2021/12/28 06:23:37;;;;;;;20.23;8.68;;;7.60;99.90;;;;;;5023371;28;20049;-68
2021/12/28 06:26:03;;;;;;;22.90;9.05;;;7.60;99.90;;;;;;5019051;28;20096;-66
2021/12/28 06:28:28;;;;;;;20.65;8.63;;;7.50;99.90;;;;;;5030523;28;20378;-66
2021/12/28 06:30:54;;;;;;;19.33;7.68;;;7.60;99.90;;;;;;5034044;28;20037;-67
2021/12/28 06:33:21;;;;;;;21.13;8.95;;;7.60;99.90;;;;;;5034223;28;20366;-66
2021/12/28 06:35:47;;;;;;;19.75;8.10;;;7.60;99.90;;;;;;5016157;28;20595;-65
2021/12/28 06:38:13;;;;;;;17.55;8.70;;;7.50;99.90;;;;;;5034438;28;20088;-67
2021/12/28 06:40:38;;;;;;;23.02;8.80;;;7.60;99.90;;;;;;5033694;28;20080;-66
2021/12/28 06:43:04;;;;;;;20.45;8.25;;;7.60;99.90;;;;;;5033762;28;20084;-67
2021/12/28 06:45:30;;;;;;;22.70;9.02;;;7.50;99.90;;;;;;5007141;28;20382;-66
2021/12/28 06:47:55;;;;;;;20.15;7.90;;;7.50;99.90;;;;;;5034077;28;20049;-66
2021/12/28 06:50:21;;;;;;;15.52;7.95;;;7.50;99.90;;;;;;5034001;28;20047;-67
2021/12/28 06:52:47;;;;;;;21.15;8.10;;;7.50;99.90;;;;;;5033239;28;20076;-66
2021/12/28 06:55:12;;;;;;;22.05;8.32;;;7.60;99.90;;;;;;5033897;28;20120;-68
2021/12/28 06:57:38;;;;;;;18.35;7.55;;;7.50;99.90;;;;;;4997596;28;20127;-65
2021/12/28 07:00:09;;;;;;;25.52;8.63;;;7.50;99.90;;;;;;5013261;28;20465;-67
2021/12/28 07:02:34;;;;;;;19.13;7.25;;;7.50;99.90;;;;;;5009667;28;20042;-66
2021/12/28 07:05:00;;;;;;;17.45;7.38;;;7.50;99.90;;;;;;5016245;28;20037;-65
2021/12/28 07:07:26;;;;;;;20.20;7.10;;;7.60;99.90;;;;;;5032874;28;20041;-65
2021/12/28 07:09:58;;;;;;;21.73;7.38;;;7.60;99.90;;;;;;5026396;28;20037;-66
2021/12/28 07:12:23;;;;;;;21.50;7.20;;;7.60;99.90;;;;;;5020856;28;20115;-67
2021/12/28 07:14:49;;;;;;;17.42;6.85;;;7.60;99.90;;;;;;5014928;28;20439;-66
2021/12/28 07:17:15;;;;;;;17.95;7.07;;;7.60;99.90;;;;;;5015646;28;20043;-68
2021/12/28 07:19:41;;;;;;;21.00;7.45;;;7.60;99.90;;;;;;5015887;28;20517;-67
2021/12/28 07:22:07;;;;;;;18.60;7.50;;;7.60;99.90;;;;;;5030980;28;20048;-68
2021/12/28 07:24:32;;;;;;;22.08;8.30;;;7.60;99.90;;;;;;5015473;28;20099;-68
2021/12/28 07:26:58;;;;;;;18.13;6.88;;;7.60;99.90;;;;;;5015923;28;20045;-68
2021/12/28 07:29:24;;;;;;;20.73;7.30;;;7.60;99.90;;;;;;5033607;28;20064;-67
2021/12/28 07:31:50;;;;;;;22.20;7.40;;;7.60;99.90;;;;;;5015232;28;20072;-67
2021/12/28 07:34:17;;;;;;;20.95;7.10;;;7.60;99.90;;;;;;5019829;28;20056;-65
2021/12/28 07:36:43;;;;;;;20.05;7.30;;;7.60;99.90;;;;;;4996067;28;20042;-67
2021/12/28 07:39:09;;;;;;;17.20;7.00;;;7.70;99.90;;;;;;5013764;28;20048;-67
2021/12/28 07:41:34;;;;;;;23.55;6.50;;;7.70;99.90;;;;;;5001029;28;20040;-68
2021/12/28 07:44:00;;;;;;;24.15;6.60;;;7.70;99.90;;;;;;5015704;28;20033;-66
2021/12/28 07:46:28;;;;;;;23.23;6.30;;;7.70;99.90;;;;;;5015726;28;20711;-66
2021/12/28 07:48:54;;;;;;;23.27;6.70;;;7.70;99.90;;;;;;5033712;28;20037;-67
2021/12/28 07:51:20;;;;;;;20.60;7.03;;;7.70;99.90;;;;;;5030247;28;20053;-67
2021/12/28 07:53:46;;;;;;;21.75;6.90;;;7.80;99.90;;;;;;5013776;28;20060;-66
2021/12/28 07:56:11;;;;;;;24.08;7.15;;;7.80;99.90;;;;;;5013008;28;20077;-67
2021/12/28 07:58:37;;;;;;;20.08;6.40;;;7.80;99.90;;;;;;5013733;28;20131;-68
2021/12/28 08:01:03;;;;;;;23.73;6.75;;;7.90;99.90;;;;;;4996268;28;20471;-66
2021/12/28 08:03:28;;;;;;;18.55;6.28;;;7.90;99.90;;;;;;5033722;28;20060;-67
2021/12/28 08:05:54;;;;;;;19.77;6.95;;;7.90;99.90;;;;;;5015404;28;20033;-66
2021/12/28 08:08:20;;;;;;;23.85;6.90;;;7.90;99.90;;;;;;4996168;28;20041;-66
2021/12/28 08:10:46;;;;;;;20.98;6.55;;;7.90;99.90;;;;;;4996112;28;20050;-66
2021/12/28 08:13:12;;;;;;;21.00;6.22;;;7.90;99.90;;;;;;4996664;28;20070;-67
2021/12/28 08:15:37;;;;;;;18.50;6.63;;;7.90;99.90;;;;;;4995465;28;20046;-66
2021/12/28 08:18:04;;;;;;;24.48;6.63;;;7.90;99.90;;;;;;4996120;28;20386;-68
2021/12/28 08:20:30;;;;;;;24.80;7.07;;;7.90;99.90;;;;;;4995783;28;20042;-67
2021/12/28 08:22:57;;;;;;;22.48;7.13;;;7.90;99.90;;;;;;5003351;28;20160;-67
2021/12/28 08:25:23;;;;;;;21.88;6.60;;;7.90;99.90;;;;;;4995733;28;20056;-66
2021/12/28 08:27:50;;;;;;;22.55;7.07;;;7.80;99.90;;;;;;4996310;28;20038;-66
2021/12/28 08:30:17;;;;;;;26.65;7.75;;;7.80;99.90;;;;;;5013417;28;20041;-67
2021/12/28 08:32:43;;;;;;;20.98;7.07;;;7.80;99.90;;;;;;5009328;28;20427;-66
2021/12/28 08:35:11;;;;;;;20.73;6.93;;;7.80;99.90;;;;;;5015239;28;20128;-67
2021/12/28 08:37:36;;;;;;;22.88;7.45;;;7.90;99.90;;;;;;5015918;28;20030;-66
2021/12/28 08:40:05;;;;;;;21.02;7.95;;;7.80;99.90;;;;;;5006279;28;20088;-68
2021/12/28 08:42:31;;;;;;;19.25;6.90;;;7.90;99.90;;;;;;4982400;28;20049;-67
2021/12/28 08:44:56;;;;;;;22.75;7.50;;;8.10;99.90;;;;;;5018009;28;20037;-67
2021/12/28 08:47:26;;;;;;;17.25;7.28;;;8.00;99.90;;;;;;5017696;28;20049;-68
2021/12/28 08:49:56;;;;;;;17.80;7.60;;;8.00;99.90;;;;;;5019321;28;20084;-67
2021/12/28 08:52:22;;;;;;;29.92;8.73;;;8.10;99.90;;;;;;5035674;28;20389;-68
2021/12/28 08:54:48;;;;;;;23.23;8.30;;;8.10;99.90;;;;;;5018805;28;20566;-68
2021/12/28 08:57:14;;;;;;;20.95;8.02;;;8.10;99.90;;;;;;5036592;28;20041;-69
2021/12/28 08:59:39;;;;;;;21.38;9.23;;;8.10;99.90;;;;;;5002525;28;20045;-68
2021/12/28 09:02:07;;;;;;;22.50;8.75;;;8.10;99.90;;;;;;5027790;28;20085;-68
2021/12/28 09:04:33;;;;;;;27.58;9.50;;;8.20;99.90;;;;;;4999157;28;20030;-67
2021/12/28 09:06:59;;;;;;;16.20;8.18;;;8.20;99.90;;;;;;4999314;28;20455;-68
2021/12/28 09:09:25;;;;;;;20.25;8.57;;;8.20;99.90;;;;;;4999093;28;20481;-68
2021/12/28 09:11:50;;;;;;;22.92;8.73;;;8.20;99.90;;;;;;5005137;28;20045;-67
2021/12/28 09:14:16;;;;;;;22.27;9.63;;;8.30;99.90;;;;;;5018203;28;20053;-67
2021/12/28 09:16:42;;;;;;;22.92;10.15;;;8.30;99.90;;;;;;5018538;28;20049;-68
2021/12/28 09:19:07;;;;;;;22.35;9.68;;;8.20;99.90;;;;;;5018534;28;20049;-68
2021/12/28 09:21:33;;;;;;;20.45;9.77;;;8.20;99.90;;;;;;5014650;28;20061;-68
2021/12/28 09:23:59;;;;;;;26.27;10.13;;;8.30;99.90;;;;;;5032672;28;20390;-68
2021/12/28 09:26:24;;;;;;;22.73;9.68;;;8.40;99.90;;;;;;5018617;28;20083;-69
2021/12/28 09:28:50;;;;;;;28.30;10.23;;;8.40;99.90;;;;;;5018380;28;20049;-68
2021/12/28 09:31:16;;;;;;;29.13;11.05;;;8.40;99.90;;;;;;5034662;28;20051;-69
2021/12/28 09:33:42;;;;;;;21.55;9.52;;;8.40;99.90;;;;;;5001849;28;20370;-68
2021/12/28 09:36:09;;;;;;;22.45;9.70;;;8.40;99.90;;;;;;5035830;28;20045;-69
2021/12/28 09:38:35;;;;;;;22.40;10.15;;;8.40;99.90;;;;;;5018325;28;20431;-68
2021/12/28 09:41:01;;;;;;;20.98;10.27;;;8.40;99.90;;;;;;5035788;28;20033;-67
2021/12/28 09:43:27;;;;;;;17.75;8.98;;;8.40;99.90;;;;;;5001000;28;20418;-67
2021/12/28 09:45:53;;;;;;;23.88;9.63;;;8.40;99.90;;;;;;5032233;28;20106;-66
2021/12/28 09:48:18;;;;;;;19.23;9.35;;;8.40;99.90;;;;;;5025201;28;20041;-67
2021/12/28 09:50:44;;;;;;;24.05;10.73;;;8.40;99.90;;;;;;5013369;28;20367;-67
2021/12/28 09:53:12;;;;;;;22.65;9.55;;;8.40;99.90;;;;;;5016238;28;20398;-67
2021/12/28 09:55:38;;;;;;;19.77;10.18;;;8.40;99.90;;;;;;5017730;28;20477;-68
2021/12/28 09:58:04;;;;;;;21.75;9.65;;;8.40;99.90;;;;;;5009164;28;20067;-66
2021/12/28 10:00:29;;;;;;;20.73;9.88;;;8.40;99.90;;;;;;5013577;28;20049;-66
2021/12/28 10:02:55;;;;;;;19.60;9.50;;;8.50;99.90;;;;;;5032876;28;20048;-66
2021/12/28 10:05:24;;;;;;;19.27;10.40;;;8.50;99.90;;;;;;5017279;28;20537;-67
2021/12/28 10:07:58;;;;;;;21.30;10.40;;;8.50;99.90;;;;;;5017784;28;20072;-67
2021/12/28 10:10:30;;;;;;;22.75;10.68;;;8.60;99.90;;;;;;5017631;28;20482;-65
2021/12/28 10:13:04;;;;;;;19.85;8.80;;;8.60;99.90;;;;;;5015415;28;20053;-67
2021/12/28 10:15:34;;;;;;;16.88;9.88;;;8.60;99.90;;;;;;5000360;28;20052;-67
2021/12/28 10:18:03;;;;;;;19.90;9.35;;;8.60;99.90;;;;;;5013524;28;20490;-67
2021/12/28 10:20:41;;;;;;;19.73;9.48;;;8.50;99.90;;;;;;5012821;28;20129;-65
2021/12/28 10:23:20;;;;;;;19.90;10.20;;;8.70;99.90;;;;;;5002087;28;20070;-66
2021/12/28 10:26:16;;;;;;;17.75;9.45;;;8.70;99.90;;;;;;4992597;28;20060;-67
2021/12/28 10:28:41;;;;;;;;;;;8.70;99.90;;;;;;4993416;28;20050;-67
2021/12/28 10:31:19;;;;;;;17.65;9.32;;;8.70;99.90;;;;;;4994558;28;19925;-67
2021/12/28 10:33:44;;;;;;;17.48;8.52;;;8.70;99.90;;;;;;4993941;28;20140;-66
2021/12/28 10:36:15;;;;;;;16.48;8.48;;;8.80;99.90;;;;;;4995477;28;20093;-66
2021/12/28 10:38:47;;;;;;;12.45;7.45;;;8.80;99.90;;;;;;4994843;28;20058;-66
2021/12/28 10:41:15;;;;;;;15.13;7.97;;;8.90;99.90;;;;;;4995332;28;20475;-66
2021/12/28 10:43:47;;;;;;;18.40;8.45;;;8.90;99.90;;;;;;5012455;28;20041;-67
2021/12/28 10:46:16;;;;;;;15.10;7.85;;;8.90;99.90;;;;;;4995158;28;20113;-66
2021/12/28 10:48:47;;;;;;;15.93;8.10;;;8.90;99.90;;;;;;4995217;28;20121;-67
2021/12/28 10:51:17;;;;;;;14.60;7.65;;;8.90;99.90;;;;;;4995492;28;20038;-67
2021/12/28 10:54:22;;;;;;;12.10;7.78;;;8.90;99.90;;;;;;5014528;28;20096;-67
2021/12/28 10:56:57;;;;;;;14.80;8.02;;;8.90;99.90;;;;;;5011388;28;20115;-67
2021/12/28 10:59:25;;;;;;;11.55;6.53;;;9.00;99.90;;;;;;5015105;28;20056;-67
2021/12/28 11:01:53;;;;;;;12.75;6.78;;;9.00;99.90;;;;;;5008604;28;20030;-66
2021/12/28 11:04:19;;;;;;;11.25;6.50;;;9.00;99.90;;;;;;4993349;28;20046;-66
2021/12/28 11:06:50;;;;;;;11.43;6.13;;;9.00;99.90;;;;;;4995040;28;20099;-66
2021/12/28 11:09:18;;;;;;;10.45;6.00;;;9.00;99.90;;;;;;4994439;28;20042;-68
2021/12/28 11:11:45;;;;;;;7.80;5.63;;;9.10;99.90;;;;;;4999178;28;20124;-68
2021/12/28 11:14:17;;;;;;;9.98;5.55;;;9.10;99.90;;;;;;5013930;28;20061;-67
2021/12/28 11:16:51;;;;;;;9.63;5.68;;;9.10;99.90;;;;;;5012924;28;20184;-67
2021/12/28 11:19:24;;;;;;;8.52;5.57;;;9.10;99.90;;;;;;5046274;28;20054;-68
2021/12/28 11:21:56;;;;;;;8.02;4.90;;;9.20;99.90;;;;;;5008739;28;20066;-67
2021/12/28 11:24:28;;;;;;;9.85;5.88;;;9.10;99.90;;;;;;4994610;28;20038;-68
2021/12/28 11:26:54;;;;;;;9.88;5.18;;;9.10;99.90;;;;;;4994716;28;20061;-69
2021/12/28 11:29:35;;;;;;;8.10;4.63;;;9.10;99.90;;;;;;4993467;28;20046;-68
2021/12/28 11:32:16;;;;;;;9.35;5.07;;;9.20;99.90;;;;;;5000784;28;20123;-67
2021/12/28 11:34:42;;;;;;;7.93;4.65;;;9.20;99.90;;;;;;5045690;28;20041;-68
2021/12/28 11:37:19;;;;;;;7.78;4.63;;;9.20;99.90;;;;;;5045822;28;20074;-68
2021/12/28 11:39:48;;;;;;;5.20;4.00;;;9.20;99.90;;;;;;5014026;28;20033;-67
2021/12/28 11:42:15;;;;;;;8.10;4.60;;;9.20;99.90;;;;;;5006068;28;20099;-68
2021/12/28 11:44:42;;;;;;;8.88;4.78;;;9.30;99.90;;;;;;4993268;28;20371;-67
2021/12/28 11:47:09;;;;;;;6.53;4.47;;;9.30;99.90;;;;;;5000036;28;20048;-68
2021/12/28 11:49:37;;;;;;;7.00;4.13;;;9.30;99.90;;;;;;4994058;28;20129;-68
2021/12/28 11:52:06;;;;;;;7.72;4.65;;;9.20;99.90;;;;;;5006968;28;20400;-67
2021/12/28 11:54:37;;;;;;;7.90;4.70;;;9.30;99.90;;;;;;5005747;28;20041;-66
2021/12/28 11:57:18;;;;;;;9.93;4.78;;;9.30;99.90;;;;;;5013279;28;20463;-67
2021/12/28 11:59:52;;;;;;;7.70;4.65;;;9.30;99.90;;;;;;5028385;28;20041;-67
2021/12/28 12:02:18;;;;;;;8.32;4.88;;;9.30;99.90;;;;;;5011552;28;20378;-67
2021/12/28 12:04:49;;;;;;;9.02;5.38;;;9.30;99.90;;;;;;5013039;28;20056;-67
2021/12/28 12:07:16;;;;;;;6.60;4.57;;;9.40;99.90;;;;;;5033268;28;20050;-68
2021/12/28 12:10:05;;;;;;;6.63;5.10;;;9.40;99.90;;;;;;5012227;28;20088;-68
2021/12/28 12:12:45;;;;;;;6.85;5.07;;;9.40;99.90;;;;;;5002381;28;20049;-67
2021/12/28 12:15:13;;;;;;;6.43;4.78;;;9.40;99.90;;;;;;5003601;28;20107;-66
2021/12/28 12:17:40;;;;;;;7.97;5.80;;;9.40;99.90;;;;;;5011821;28;20045;-67
2021/12/28 12:20:25;;;;;;;8.30;4.97;;;9.50;99.90;;;;;;5011095;28;20198;-67
2021/12/28 12:23:04;;;;;;;7.00;4.47;;;9.50;99.90;;;;;;5000332;28;20069;-67
2021/12/28 12:25:42;;;;;;;7.82;4.78;;;9.50;99.90;;;;;;4996087;28;20097;-68
2021/12/28 12:28:09;;;;;;;6.68;4.75;;;9.60;99.90;;;;;;4996063;28;20038;-68
2021/12/28 12:30:47;;;;;;;7.47;4.55;;;9.60;99.90;;;;;;4995364;28;20042;-68
2021/12/28 12:33:15;;;;;;;6.53;4.53;;;9.50;99.90;;;;;;5012453;28;20038;-67
2021/12/28 12:35:55;;;;;;;6.60;4.50;;;9.50;99.90;;;;;;5016485;28;20410;-66
2021/12/28 12:38:24;;;;;;;8.85;4.75;;;9.50;99.90;;;;;;5017043;28;20065;-67
2021/12/28 12:40:59;;;;;;;5.50;4.40;;;9.60;99.90;;;;;;5016232;28;20477;-67
2021/12/28 12:43:47;;;;;;;6.68;4.80;;;9.60;99.90;;;;;;4999196;28;20035;-67
2021/12/28 12:46:40;;;;;;;7.28;4.45;;;9.60;99.90;;;;;;4989748;28;20054;-67
2021/12/28 12:49:11;;;;;;;5.40;4.13;;;9.60;99.90;;;;;;4996336;28;20046;-67